createdAt,value
2019-06-07T00:00:29.688Z,11.60
2019-06-07T00:02:39.931Z,11.60
2019-06-07T00:05:09.987Z,11.50
2019-06-07T00:07:39.288Z,11.50
2019-06-07T00:10:09.395Z,11.50
2019-06-07T00:12:38.479Z,11.50
2019-06-07T00:15:11.716Z,11.50
2019-06-07T00:17:37.705Z,11.40
2019-06-07T00:20:09.339Z,11.40
2019-06-07T00:22:37.559Z,11.40
2019-06-07T00:25:12.443Z,11.30
2019-06-07T00:27:39.410Z,11.30
2019-06-07T00:30:32.774Z,11.30
2019-06-07T00:32:40.354Z,11.30
2019-06-07T00:35:11.698Z,11.20
2019-06-07T00:37:40.529Z,11.20
2019-06-07T00:40:16.336Z,11.20
2019-06-07T00:42:39.758Z,11.20
2019-06-07T00:45:11.203Z,11.20
2019-06-07T00:47:39.948Z,11.20
2019-06-07T00:50:11.144Z,11.10
2019-06-07T00:53:13.998Z,11.10
2019-06-07T00:55:14.327Z,11.00
2019-06-07T00:57:42.556Z,11.00
2019-06-07T01:00:15.027Z,11.00
2019-06-07T01:02:43.465Z,11.00
2019-06-07T01:05:15.950Z,11.00
2019-06-07T01:07:42.267Z,11.00
2019-06-07T01:10:13.847Z,11.00
2019-06-07T01:12:43.298Z,11.00
2019-06-07T01:15:15.736Z,11.00
2019-06-07T01:18:32.420Z,10.90
2019-06-07T01:20:14.151Z,11.00
2019-06-07T01:22:43.040Z,11.00
2019-06-07T01:25:11.801Z,11.00
2019-06-07T01:27:40.513Z,11.00
2019-06-07T01:30:10.783Z,11.00
2019-06-07T01:32:39.403Z,11.10
2019-06-07T01:35:08.426Z,11.10
2019-06-07T01:37:36.899Z,11.20
2019-06-07T01:40:06.930Z,11.20
2019-06-07T01:42:35.470Z,11.20
2019-06-07T01:45:06.633Z,11.20
2019-06-07T01:47:34.434Z,11.20
2019-06-07T01:50:04.635Z,11.20
2019-06-07T01:52:33.106Z,11.30
2019-06-07T01:55:01.552Z,11.30
2019-06-07T01:57:44.180Z,11.30
2019-06-07T02:00:00.498Z,11.40
2019-06-07T02:02:31.558Z,11.40
2019-06-07T02:04:59.327Z,11.30
2019-06-07T02:07:32.618Z,11.40
2019-06-07T02:09:58.022Z,11.40
2019-06-07T02:12:37.689Z,11.40
2019-06-07T02:14:56.786Z,11.40
2019-06-07T02:17:28.205Z,11.50
2019-06-07T02:19:55.608Z,11.50
2019-06-07T02:22:25.769Z,11.50
2019-06-07T02:25:34.660Z,11.50
2019-06-07T02:27:26.077Z,11.50
2019-06-07T02:29:55.082Z,11.50
2019-06-07T02:32:25.095Z,11.40
2019-06-07T02:34:53.775Z,11.50
2019-06-07T02:37:24.216Z,11.50
2019-06-07T02:39:52.426Z,11.50
2019-06-07T02:42:25.210Z,11.50
2019-06-07T02:44:51.680Z,11.50
2019-06-07T02:47:20.107Z,11.60
2019-06-07T02:49:48.767Z,11.60
2019-06-07T02:52:17.375Z,11.70
2019-06-07T02:54:45.837Z,11.70
2019-06-07T02:57:14.357Z,11.60
2019-06-07T03:00:05.598Z,11.60
2019-06-07T03:02:13.326Z,11.60
2019-06-07T03:04:44.744Z,11.50
2019-06-07T03:07:12.838Z,11.40
2019-06-07T03:09:42.722Z,11.30
2019-06-07T03:12:13.498Z,11.30
2019-06-07T03:14:43.582Z,11.30
2019-06-07T03:17:23.000Z,11.20
2019-06-07T03:19:57.461Z,11.20
2019-06-07T03:22:26.739Z,11.20
2019-06-07T03:24:56.254Z,11.10
2019-06-07T03:27:40.533Z,11.10
2019-06-07T03:29:55.782Z,11.10
2019-06-07T03:32:24.297Z,11.10
2019-06-07T03:34:52.773Z,11.10
2019-06-07T03:37:21.210Z,11.20
2019-06-07T03:39:49.654Z,11.20
2019-06-07T03:42:18.119Z,11.20
2019-06-07T03:44:46.755Z,11.10
2019-06-07T03:47:15.243Z,11.10
2019-06-07T03:49:43.714Z,11.20
2019-06-07T03:52:12.235Z,11.20
2019-06-07T03:54:40.736Z,11.20
2019-06-07T03:57:09.214Z,11.20
2019-06-07T03:59:40.967Z,11.30
2019-06-07T04:02:07.837Z,11.50
2019-06-07T04:04:38.523Z,11.60
2019-06-07T04:07:07.083Z,11.70
2019-06-07T04:09:39.444Z,11.70
2019-06-07T04:12:05.895Z,11.90
2019-06-07T04:14:35.252Z,12.00
2019-06-07T04:17:04.655Z,12.30
2019-06-07T04:19:38.215Z,12.40
2019-06-07T04:22:03.262Z,12.40
2019-06-07T04:24:36.584Z,12.40
2019-06-07T04:27:07.328Z,12.50
2019-06-07T04:30:01.977Z,12.50
2019-06-07T04:32:06.203Z,12.60
2019-06-07T04:34:37.490Z,12.70
2019-06-07T04:37:05.431Z,12.90
2019-06-07T04:39:37.806Z,13.00
2019-06-07T04:42:05.563Z,13.20
2019-06-07T04:44:39.393Z,13.30
2019-06-07T04:47:09.828Z,13.40
2019-06-07T04:49:43.514Z,13.30
2019-06-07T04:52:11.062Z,13.40
2019-06-07T04:54:45.591Z,13.50
2019-06-07T04:57:09.918Z,13.60
2019-06-07T05:00:11.179Z,13.80
2019-06-07T05:02:09.327Z,13.80
2019-06-07T05:04:39.814Z,13.80
2019-06-07T05:07:08.136Z,13.80
2019-06-07T05:09:40.054Z,13.80
2019-06-07T05:12:07.182Z,13.90
2019-06-07T05:14:36.758Z,14.10
2019-06-07T05:17:06.038Z,14.20
2019-06-07T05:19:38.107Z,14.30
2019-06-07T05:22:05.445Z,14.30
2019-06-07T05:24:36.513Z,14.50
2019-06-07T05:27:04.553Z,14.70
2019-06-07T05:29:36.364Z,14.80
2019-06-07T05:32:03.745Z,14.90
2019-06-07T05:34:32.769Z,15.00
2019-06-07T05:37:11.795Z,15.10
2019-06-07T05:39:36.859Z,15.10
2019-06-07T05:42:03.832Z,15.30
2019-06-07T05:44:34.119Z,15.30
2019-06-07T05:47:02.805Z,15.40
2019-06-07T05:49:32.941Z,15.50
2019-06-07T05:52:02.112Z,15.50
2019-06-07T05:54:30.664Z,15.60
2019-06-07T05:56:59.126Z,15.60
2019-06-07T05:59:29.147Z,15.70
2019-06-07T06:02:05.012Z,15.70
2019-06-07T06:04:27.776Z,15.80
2019-06-07T06:06:56.274Z,15.90
2019-06-07T06:09:25.011Z,16.00
2019-06-07T06:12:01.883Z,16.20
2019-06-07T06:14:23.658Z,16.20
2019-06-07T06:16:52.155Z,16.40
2019-06-07T06:19:22.331Z,16.50
2019-06-07T06:21:50.790Z,16.60
2019-06-07T06:24:19.404Z,16.60
2019-06-07T06:26:54.031Z,16.60
2019-06-07T06:29:19.527Z,16.60
2019-06-07T06:32:36.714Z,16.70
2019-06-07T06:34:18.302Z,16.80
2019-06-07T06:36:50.090Z,17.00
2019-06-07T06:39:17.008Z,17.10
2019-06-07T06:41:57.132Z,17.30
2019-06-07T06:44:15.953Z,17.30
2019-06-07T06:46:49.028Z,17.30
2019-06-07T06:49:14.710Z,17.50
2019-06-07T06:51:47.832Z,17.50
2019-06-07T06:54:13.709Z,17.60
2019-06-07T06:56:45.093Z,17.60
2019-06-07T06:59:37.597Z,17.70
2019-06-07T07:01:45.041Z,17.80
2019-06-07T07:04:14.319Z,17.90
2019-06-07T07:06:43.126Z,18.10
2019-06-07T07:09:11.851Z,18.10
2019-06-07T07:11:59.256Z,18.20
2019-06-07T07:14:11.142Z,18.30
2019-06-07T07:16:42.174Z,18.30
2019-06-07T07:19:12.126Z,18.30
2019-06-07T07:21:42.043Z,18.30
2019-06-07T07:24:21.245Z,18.40
2019-06-07T07:26:42.962Z,18.40
2019-06-07T07:29:11.109Z,18.50
2019-06-07T07:31:39.899Z,18.50
2019-06-07T07:34:34.699Z,18.40
2019-06-07T07:36:40.057Z,18.50
2019-06-07T07:39:08.822Z,18.60
2019-06-07T07:41:37.383Z,18.70
2019-06-07T07:44:07.727Z,18.80
2019-06-07T07:46:36.529Z,18.90
2019-06-07T07:49:05.035Z,18.90
2019-06-07T07:51:33.708Z,18.80
2019-06-07T07:54:10.733Z,18.90
2019-06-07T07:56:32.503Z,19.20
2019-06-07T07:59:02.314Z,19.30
2019-06-07T08:01:31.472Z,19.60
2019-06-07T08:04:00.039Z,19.70
2019-06-07T08:06:29.949Z,19.80
2019-06-07T08:08:59.156Z,19.80
2019-06-07T08:11:27.800Z,19.60
2019-06-07T08:13:57.645Z,19.60
2019-06-07T08:16:26.495Z,19.60
2019-06-07T08:18:58.574Z,19.80
2019-06-07T08:21:26.934Z,20.10
2019-06-07T08:24:00.401Z,20.20
2019-06-07T08:26:25.714Z,20.10
2019-06-07T08:28:58.515Z,20.20
2019-06-07T08:31:24.487Z,20.10
2019-06-07T08:33:56.556Z,20.10
2019-06-07T08:36:40.818Z,19.90
2019-06-07T08:38:59.828Z,19.90
2019-06-07T08:41:23.449Z,20.10
2019-06-07T08:43:55.211Z,20.30
2019-06-07T08:46:22.394Z,20.40
2019-06-07T08:48:51.713Z,20.30
2019-06-07T08:51:21.117Z,20.50
2019-06-07T08:54:08.485Z,20.60
2019-06-07T08:56:26.839Z,20.50
2019-06-07T08:59:00.354Z,20.70
2019-06-07T09:01:25.698Z,20.80
2019-06-07T09:03:59.843Z,20.80
2019-06-07T09:08:56.088Z,20.80
2019-06-07T09:11:24.754Z,20.80
2019-06-07T09:13:55.491Z,21.00
2019-06-07T09:16:23.785Z,21.10
2019-06-07T09:18:56.126Z,21.20
2019-06-07T09:21:22.570Z,21.40
2019-06-07T09:23:51.446Z,21.30
2019-06-07T09:26:20.027Z,21.40
2019-06-07T09:28:48.630Z,21.40
2019-06-07T09:31:17.091Z,21.50
2019-06-07T09:33:45.598Z,21.70
2019-06-07T09:36:14.138Z,21.70
2019-06-07T09:38:44.230Z,21.70
2019-06-07T09:41:12.801Z,21.80
2019-06-07T09:46:14.898Z,22.20
2019-06-07T09:51:19.359Z,22.30
2019-06-07T09:53:42.222Z,22.30
2019-06-07T09:56:12.091Z,22.40
2019-06-07T09:58:52.007Z,22.40
2019-06-07T10:01:13.719Z,22.60
2019-06-07T10:03:41.550Z,22.60
2019-06-07T10:06:13.544Z,22.70
2019-06-07T10:11:13.951Z,22.80
2019-06-07T10:13:42.448Z,23.00
2019-06-07T10:16:12.800Z,23.10
2019-06-07T10:18:41.496Z,23.40
2019-06-07T10:21:14.805Z,23.40
2019-06-07T10:23:40.250Z,23.30
2019-06-07T10:26:10.054Z,23.20
2019-06-07T10:28:38.763Z,23.20
2019-06-07T10:31:09.353Z,23.20
2019-06-07T10:33:37.751Z,23.50
2019-06-07T10:36:06.647Z,23.60
2019-06-07T10:38:35.282Z,23.70
2019-06-07T10:41:04.744Z,23.80
2019-06-07T10:43:33.360Z,23.90
2019-06-07T10:46:01.908Z,24.10
2019-06-07T10:48:32.011Z,24.20
2019-06-07T10:51:02.067Z,24.30
2019-06-07T10:53:31.094Z,24.20
2019-06-07T10:55:59.619Z,24.30
2019-06-07T10:58:28.232Z,24.40
2019-06-07T11:00:56.817Z,24.50
2019-06-07T11:03:25.354Z,24.50
2019-06-07T11:05:54.035Z,24.60
2019-06-07T11:08:22.886Z,24.70
2019-06-07T11:10:51.377Z,24.90
2019-06-07T11:13:20.495Z,25.00
2019-06-07T11:15:48.987Z,25.00
2019-06-07T11:18:18.882Z,24.80
2019-06-07T11:20:53.076Z,24.70
2019-06-07T11:23:21.544Z,24.70
2019-06-07T11:25:50.214Z,24.80
2019-06-07T11:28:18.838Z,24.90
2019-06-07T11:30:47.294Z,24.80
2019-06-07T11:33:16.499Z,24.90
2019-06-07T11:35:45.079Z,25.00
2019-06-07T11:38:14.633Z,25.20
2019-06-07T11:40:43.285Z,25.20
2019-06-07T11:43:12.803Z,25.50
2019-06-07T11:45:41.346Z,25.50
2019-06-07T11:48:11.250Z,25.50
2019-06-07T11:50:40.461Z,25.40
2019-06-07T11:53:12.625Z,25.60
2019-06-07T11:55:41.292Z,25.90
2019-06-07T11:58:14.336Z,25.80
2019-06-07T12:00:40.361Z,25.80
2019-06-07T12:03:09.470Z,25.80
2019-06-07T12:05:40.423Z,25.70
2019-06-07T12:08:10.011Z,25.90
2019-06-07T12:10:42.674Z,26.00
2019-06-07T12:13:12.537Z,26.00
2019-06-07T12:15:39.220Z,26.10
2019-06-07T12:18:09.111Z,26.10
2019-06-07T12:20:37.947Z,26.30
2019-06-07T12:23:06.887Z,26.30
2019-06-07T12:25:35.396Z,26.30
2019-06-07T12:28:05.993Z,26.40
2019-06-07T12:30:34.462Z,26.70
2019-06-07T12:33:02.947Z,26.70
2019-06-07T12:35:32.314Z,26.70
2019-06-07T12:38:05.614Z,26.70
2019-06-07T12:40:34.196Z,26.70
2019-06-07T12:43:02.814Z,26.80
2019-06-07T12:45:44.472Z,26.80
2019-06-07T12:48:02.985Z,26.80
2019-06-07T12:50:42.672Z,26.80
2019-06-07T12:53:02.076Z,27.00
2019-06-07T12:55:32.115Z,27.10
2019-06-07T12:58:02.335Z,27.30
2019-06-07T13:00:31.013Z,27.20
2019-06-07T13:02:59.642Z,27.30
2019-06-07T13:05:29.723Z,27.40
2019-06-07T13:07:58.531Z,27.60
2019-06-07T13:10:28.527Z,27.70
2019-06-07T13:12:57.403Z,27.70
2019-06-07T13:15:26.246Z,27.70
2019-06-07T13:17:55.448Z,27.80
2019-06-07T13:20:26.052Z,27.80
2019-06-07T13:22:56.505Z,27.80
2019-06-07T13:25:41.184Z,27.80
2019-06-07T13:27:56.866Z,27.90
2019-06-07T13:30:25.714Z,28.00
2019-06-07T13:32:54.410Z,28.00
2019-06-07T13:35:23.755Z,27.90
2019-06-07T13:37:52.679Z,27.90
2019-06-07T13:40:23.000Z,28.00
2019-06-07T13:42:52.007Z,27.90
2019-06-07T13:45:22.149Z,28.10
2019-06-07T13:47:51.038Z,28.20
2019-06-07T13:50:21.709Z,28.30
2019-06-07T13:52:50.408Z,28.40
2019-06-07T13:55:21.954Z,28.50
2019-06-07T13:57:50.527Z,28.60
2019-06-07T14:00:22.645Z,28.80
2019-06-07T14:02:50.273Z,28.90
2019-06-07T14:05:18.907Z,28.80
2019-06-07T14:07:47.428Z,28.80
2019-06-07T14:10:16.614Z,28.80
2019-06-07T14:12:45.156Z,28.80
2019-06-07T14:15:13.943Z,28.60
2019-06-07T14:20:11.466Z,28.30
2019-06-07T14:22:40.282Z,28.60
2019-06-07T14:25:09.732Z,28.80
2019-06-07T14:27:38.405Z,29.00
2019-06-07T14:30:08.906Z,29.10
2019-06-07T14:32:37.077Z,29.10
2019-06-07T14:35:06.757Z,29.10
2019-06-07T14:37:35.488Z,29.00
2019-06-07T14:40:07.314Z,28.80
2019-06-07T14:42:35.867Z,28.70
2019-06-07T14:45:07.228Z,28.80
2019-06-07T14:47:35.667Z,28.70
2019-06-07T14:50:08.109Z,28.70
2019-06-07T14:52:36.809Z,28.70
2019-06-07T14:55:07.688Z,28.70
2019-06-07T14:57:37.349Z,28.60
2019-06-07T15:00:13.928Z,28.50
2019-06-07T15:02:42.509Z,28.30
2019-06-07T15:05:14.323Z,28.10
2019-06-07T15:07:42.883Z,28.00
2019-06-07T15:10:11.551Z,27.70
2019-06-07T15:12:40.321Z,27.60
2019-06-07T15:15:09.739Z,27.50
2019-06-07T15:17:39.147Z,27.10
2019-06-07T15:20:09.050Z,27.30
2019-06-07T15:22:38.746Z,27.20
2019-06-07T15:25:08.576Z,27.10
2019-06-07T15:27:37.756Z,27.20
2019-06-07T15:30:11.335Z,27.20
2019-06-07T15:32:40.251Z,27.10
2019-06-07T15:35:09.550Z,27.00
2019-06-07T15:37:39.301Z,26.80
2019-06-07T15:40:09.432Z,26.70
2019-06-07T15:42:51.218Z,26.50
2019-06-07T15:45:08.931Z,26.00
2019-06-07T15:47:38.318Z,25.50
2019-06-07T15:50:07.965Z,24.60
2019-06-07T15:52:38.370Z,24.00
2019-06-07T15:55:09.017Z,23.50
2019-06-07T15:57:37.255Z,23.20
2019-06-07T16:00:14.254Z,23.10
2019-06-07T16:02:43.081Z,23.20
2019-06-07T16:05:12.975Z,23.20
2019-06-07T16:07:43.749Z,23.20
2019-06-07T16:10:12.789Z,23.20
2019-06-07T16:12:58.611Z,23.30
2019-06-07T16:15:13.219Z,23.40
2019-06-07T16:17:43.819Z,23.40
2019-06-07T16:20:17.038Z,23.50
2019-06-07T16:22:45.703Z,23.30
2019-06-07T16:25:15.167Z,23.30
2019-06-07T16:27:44.805Z,23.20
2019-06-07T16:30:15.407Z,22.90
2019-06-07T16:32:46.097Z,22.40
2019-06-07T16:35:14.722Z,22.00
2019-06-07T16:37:45.851Z,21.80
2019-06-07T16:42:44.956Z,21.10
2019-06-07T16:45:14.483Z,20.80
2019-06-07T16:47:47.430Z,20.50
2019-06-07T16:50:13.480Z,20.40
2019-06-07T16:52:42.203Z,20.30
2019-06-07T16:55:13.950Z,20.30
2019-06-07T16:57:42.881Z,20.10
2019-06-07T17:00:13.511Z,20.10
2019-06-07T17:02:42.342Z,20.00
2019-06-07T17:05:11.798Z,19.70
2019-06-07T17:07:40.843Z,19.50
2019-06-07T17:10:11.380Z,19.60
2019-06-07T17:12:40.659Z,19.50
2019-06-07T17:15:12.078Z,19.40
2019-06-07T17:17:41.089Z,19.50
2019-06-07T17:20:10.409Z,19.40
2019-06-07T17:22:41.919Z,19.30
2019-06-07T17:25:12.901Z,19.30
2019-06-07T17:27:46.170Z,19.20
2019-06-07T17:30:16.931Z,19.20
2019-06-07T17:32:55.119Z,19.20
2019-06-07T17:35:18.010Z,19.10
2019-06-07T17:37:49.138Z,19.10
2019-06-07T17:40:18.306Z,19.00
2019-06-07T17:42:46.908Z,18.90
2019-06-07T17:45:17.652Z,18.80
2019-06-07T17:47:47.662Z,18.80
2019-06-07T17:50:16.766Z,18.70
2019-06-07T17:52:45.955Z,18.70
2019-06-07T17:55:15.090Z,18.60
2019-06-07T17:57:44.314Z,18.60
2019-06-07T18:00:27.994Z,18.50
2019-06-07T18:02:46.660Z,18.40
2019-06-07T18:05:15.701Z,18.40
2019-06-07T18:07:45.966Z,18.50
2019-06-07T18:10:19.202Z,18.30
2019-06-07T18:12:48.226Z,18.20
2019-06-07T18:15:19.848Z,18.30
2019-06-07T18:17:48.555Z,18.30
2019-06-07T18:20:17.357Z,18.30
2019-06-07T18:22:47.001Z,18.10
2019-06-07T18:25:15.730Z,18.00
2019-06-07T18:27:46.562Z,18.00
2019-06-07T18:30:16.878Z,18.00
2019-06-07T18:32:46.858Z,17.90
2019-06-07T18:35:15.698Z,17.90
2019-06-07T18:37:44.232Z,17.90
2019-06-07T18:40:13.044Z,17.80
2019-06-07T18:42:41.877Z,17.70
2019-06-07T18:45:10.574Z,17.70
2019-06-07T18:47:39.372Z,17.60
2019-06-07T18:50:08.379Z,17.50
2019-06-07T18:52:38.733Z,17.40
2019-06-07T18:55:09.442Z,17.40
2019-06-07T18:57:38.087Z,17.30
2019-06-07T19:00:15.692Z,17.30
2019-06-07T19:02:45.634Z,17.20
2019-06-07T19:05:16.428Z,17.20
2019-06-07T19:07:45.095Z,17.10
2019-06-07T19:10:16.490Z,16.90
2019-06-07T19:12:45.164Z,16.70
2019-06-07T19:15:15.838Z,16.50
2019-06-07T19:17:46.691Z,16.40
2019-06-07T19:20:16.172Z,16.20
2019-06-07T19:22:44.778Z,16.10
2019-06-07T19:25:15.138Z,16.10
2019-06-07T19:27:43.798Z,16.10
2019-06-07T19:30:14.143Z,16.00
2019-06-07T19:32:42.773Z,15.90
2019-06-07T19:35:12.474Z,15.80
2019-06-07T19:37:41.077Z,15.80
2019-06-07T19:40:09.867Z,15.80
2019-06-07T19:42:38.312Z,15.80
2019-06-07T19:45:29.051Z,15.80
2019-06-07T19:47:38.271Z,15.80
2019-06-07T19:50:08.259Z,15.80
2019-06-07T19:52:39.506Z,16.00
2019-06-07T19:55:11.396Z,16.00
2019-06-07T19:57:40.042Z,16.00
2019-06-07T20:00:14.072Z,16.10
2019-06-07T20:02:41.358Z,16.10
2019-06-07T20:05:14.580Z,16.10
2019-06-07T20:07:43.292Z,16.20
2019-06-07T20:10:12.958Z,16.20
2019-06-07T20:12:42.919Z,16.30
2019-06-07T20:15:27.742Z,16.40
2019-06-07T20:17:43.567Z,16.50
2019-06-07T20:20:12.572Z,16.50
2019-06-07T20:22:41.203Z,16.60
2019-06-07T20:25:10.217Z,16.50
2019-06-07T20:27:38.771Z,16.50
2019-06-07T20:30:09.974Z,16.50
2019-06-07T20:32:38.666Z,16.50
2019-06-07T20:35:08.556Z,16.50
2019-06-07T20:37:37.702Z,16.50
2019-06-07T20:40:22.695Z,16.50
2019-06-07T20:42:40.487Z,16.50
2019-06-07T20:45:09.745Z,16.50
2019-06-07T20:47:38.476Z,16.40
2019-06-07T20:50:08.917Z,16.40
2019-06-07T20:52:37.754Z,16.40
2019-06-07T20:55:09.426Z,16.40
2019-06-07T20:57:38.457Z,16.40
2019-06-07T21:00:16.044Z,16.30
2019-06-07T21:02:39.746Z,16.30
2019-06-07T21:05:09.795Z,16.20
2019-06-07T21:07:38.774Z,16.20
2019-06-07T21:10:08.479Z,16.20
2019-06-07T21:12:37.635Z,16.10
2019-06-07T21:15:11.759Z,16.10
2019-06-07T21:17:38.130Z,16.00
2019-06-07T21:20:10.299Z,16.00
2019-06-07T21:22:38.259Z,15.90
2019-06-07T21:25:09.528Z,15.90
2019-06-07T21:27:38.535Z,15.80
2019-06-07T21:30:11.903Z,15.80
2019-06-07T21:32:40.530Z,15.80
2019-06-07T21:35:10.426Z,15.80
2019-06-07T21:37:39.132Z,15.80
2019-06-07T21:40:08.562Z,15.70
2019-06-07T21:42:37.642Z,15.70
2019-06-07T21:45:07.889Z,15.70
2019-06-07T21:47:36.969Z,15.70
2019-06-07T21:50:08.698Z,15.60
2019-06-07T21:52:37.623Z,15.60
2019-06-07T21:55:09.392Z,15.60
2019-06-07T21:57:38.769Z,15.50
2019-06-07T22:00:22.633Z,15.60
2019-06-07T22:02:51.232Z,15.70
2019-06-07T22:05:19.899Z,15.80
2019-06-07T22:07:48.629Z,15.80
2019-06-07T22:10:17.384Z,15.80
2019-06-07T22:12:46.522Z,15.90
2019-06-07T22:15:31.985Z,15.90
2019-06-07T22:17:45.403Z,16.00
2019-06-07T22:20:14.752Z,16.00
2019-06-07T22:22:43.398Z,16.00
2019-06-07T22:25:13.126Z,16.00
2019-06-07T22:27:41.853Z,16.10
2019-06-07T22:30:10.894Z,16.10
2019-06-07T22:32:40.482Z,16.10
2019-06-07T22:35:09.179Z,16.20
2019-06-07T22:37:37.766Z,16.30
2019-06-07T22:40:08.516Z,16.30
2019-06-07T22:42:37.940Z,16.20
2019-06-07T22:45:07.958Z,16.30
2019-06-07T22:47:37.017Z,16.30
2019-06-07T22:50:10.653Z,16.20
2019-06-07T22:52:39.500Z,16.20
2019-06-07T22:55:10.238Z,16.30
2019-06-07T22:57:52.727Z,16.40
2019-06-07T23:00:21.245Z,16.40
2019-06-07T23:02:49.682Z,16.50
2019-06-07T23:05:18.940Z,16.50
2019-06-07T23:07:47.604Z,16.40
2019-06-07T23:10:17.455Z,16.50
2019-06-07T23:12:46.248Z,16.50
2019-06-07T23:15:15.487Z,16.40
2019-06-07T23:17:44.159Z,16.50
2019-06-07T23:20:13.733Z,16.50
2019-06-07T23:22:42.484Z,16.40
2019-06-07T23:25:12.230Z,16.40
2019-06-07T23:27:41.119Z,16.40
2019-06-07T23:30:12.393Z,16.30
2019-06-07T23:32:42.751Z,16.40
2019-06-07T23:35:12.805Z,15.80
2019-06-07T23:37:41.465Z,16.30
2019-06-07T23:40:11.371Z,16.30
2019-06-07T23:42:40.016Z,16.20
2019-06-07T23:45:08.680Z,16.20
2019-06-07T23:47:37.144Z,16.20
2019-06-07T23:50:08.674Z,16.20
2019-06-07T23:52:37.180Z,16.20
2019-06-07T23:55:09.014Z,16.20
2019-06-07T23:57:37.938Z,16.20
